Overview Statistics Trail Chart Weather Telemetry Raw packets
 

This is the latest recevied weather packets stored in our database for station/object KB1JDX. If no packets are shown the sender has not sent any weather packets the latest 10 day(s).

<< 1 2 3 4 >>
Time Temp. Humidity Pressure Rain* Wind** Luminosity Snow
1788636727 23.33° C 37% 1009.6 hPa 0 mm 0 m/s - -
1788636664 23.33° C 37% 1009.5 hPa 0 mm 0 m/s - -
1788635527 23.33° C 40% 1009.4 hPa 0 mm 0 m/s - -
1788634327 23.89° C 39% 1009.3 hPa 0 mm 0 m/s - -
1788633129 23.89° C 39% 1009.3 hPa 0 mm 0 m/s - -
1788633064 23.89° C 39% 1009.3 hPa 0 mm 0 m/s - -
1788631926 23.89° C 39% 1009.6 hPa 0 mm 0 m/s - -
1788630726 24.44° C 38% 1009.4 hPa 0 mm 0 m/s - -
1788629558 24.44° C 39% 1009.3 hPa 0 mm 0 m/s - -
1788629464 24.44° C 38% 1009.3 hPa 0 mm 0 m/s - -
1788628326 24.44° C 33% 1009.2 hPa 0 mm 0 m/s - -
1788627126 22.78° C 26% 1009.3 hPa 0 mm 0 m/s - -
1788625927 22.22° C 29% 1009.2 hPa 0 mm 0 m/s - -
1788625864 22.22° C 29% 1009.3 hPa 0 mm 0 m/s - -
1788624726 22.78° C 33% 1009.3 hPa 0 mm 0 m/s - -
1788623526 22.78° C 31% 1009.2 hPa 0 mm 0 m/s - -
1788622326 23.33° C 33% 1009.2 hPa 0 mm 0 m/s - -
1788622263 23.33° C 33% 1009.2 hPa 0 mm 0 m/s - -
1788621126 23.33° C 31% 1009.1 hPa 0 mm 0 m/s - -
1788619927 23.33° C 26% 1009 hPa 0 mm 0 m/s - -
1788618726 22.78° C 15% 1009.1 hPa 0 mm 0.45 m/s, 289° - -
1788618663 22.78° C 13% 1009.1 hPa 0 mm 0 m/s - -
1788617526 21.67° C 6% 1009.4 hPa 0 mm 0 m/s - -
1788616327 21.11° C 100% 1009.5 hPa 0 mm 0 m/s - -
1788615126 20° C 100% 1009.6 hPa 0 mm 0 m/s - -

* Rain latest hour (hover to see other rain measurements)
** Current wind speed in m/s (hover to see current wind gust speed)